PRG weather

Václav Havel Airport Prague
Prague, Prague (capital city), Czech Republic

Public forecast

Using degrees Celsius for public forecast. Weather courtesy of forecast.io.

Current aviation weather report (METAR) for Václav Havel Airport Prague

Retrieved 2020/01/26 20:30 UTC (0 seconds ago):

LKPR 262030Z 10003KT 5000 -FZDZRA BR FEW004 OVC006 M01/M01 Q1018 TEMPO 4000 BR BKN004

Aviation forecast (TAF) for Václav Havel Airport Prague

Retrieved 2020/01/26 18:18 UTC (2 hours ago):

TAF LKPR 261700Z 2618/2800 17004KT 5000 BR BKN005 TEMPO 2618/2620 BKN010 PROB30 TEMPO 2620/2707 2000 -FZRA BR BKN003 BECMG 2708/2710 21008KT 8000 BKN013 BECMG 2712/2715 23012KT 9999 -RA SCT015 BKN023 BECMG 2718/2721 19006KT SCT027